Elk Creek, Missouri
Current Conditions -  °F | °C
As of 5:53 PM on Thursday 18 Dec 2014 (Local Time) from KUNO Reporting Station
Overcast Overcast  
Wind Chill: 37°   Ceiling: 900
Heat Index: 37°   Visibility: 7mi
Dew Point: 33°   Wind: 3mph
Humidity: 86%   Direction: 100°E
Pressure: 30.18"   Gusts: NA
Location:  37.19°N, 92°W
Report Text: KUNO 182353Z AUTO 10003KT 7SM OVC009 03/01 A3018 RMK AO2 SLP228 T00280006 10028 20017 53005
Loading
Personal Weather Stations






























Interactive Weather Map New forecast layout! Learn more

10-Day Weather Forecast

Advertisements
Track Severe Weather on mobile